sensor_id;sensor_type;location;lat;lon;timestamp;P1;durP1;ratioP1;P2;durP2;ratioP2
7881;SDS011;3986;41.884;23.466;2024-01-30T00:01:06;72.10;;;18.77;;
7881;SDS011;3986;41.884;23.466;2024-01-30T00:03:33;60.27;;;17.57;;
7881;SDS011;3986;41.884;23.466;2024-01-30T00:06:00;67.97;;;16.27;;
7881;SDS011;3986;41.884;23.466;2024-01-30T00:08:29;52.97;;;14.57;;
7881;SDS011;3986;41.884;23.466;2024-01-30T00:10:56;46.97;;;12.80;;
7881;SDS011;3986;41.884;23.466;2024-01-30T00:13:23;70.43;;;15.10;;
7881;SDS011;3986;41.884;23.466;2024-01-30T00:15:50;63.17;;;19.73;;
7881;SDS011;3986;41.884;23.466;2024-01-30T00:18:17;199.43;;;30.70;;
7881;SDS011;3986;41.884;23.466;2024-01-30T00:20:45;86.37;;;27.27;;
7881;SDS011;3986;41.884;23.466;2024-01-30T00:23:12;82.37;;;24.63;;
7881;SDS011;3986;41.884;23.466;2024-01-30T00:25:40;58.30;;;15.80;;
7881;SDS011;3986;41.884;23.466;2024-01-30T00:28:06;58.60;;;14.93;;
7881;SDS011;3986;41.884;23.466;2024-01-30T00:30:33;77.33;;;15.77;;
7881;SDS011;3986;41.884;23.466;2024-01-30T00:33:00;59.73;;;15.57;;
7881;SDS011;3986;41.884;23.466;2024-01-30T00:35:27;42.67;;;12.50;;
7881;SDS011;3986;41.884;23.466;2024-01-30T00:37:54;48.63;;;13.70;;
7881;SDS011;3986;41.884;23.466;2024-01-30T00:40:22;53.57;;;12.63;;
7881;SDS011;3986;41.884;23.466;2024-01-30T00:42:50;51.40;;;13.17;;
7881;SDS011;3986;41.884;23.466;2024-01-30T00:45:17;60.63;;;12.97;;
7881;SDS011;3986;41.884;23.466;2024-01-30T00:47:44;62.93;;;13.17;;
7881;SDS011;3986;41.884;23.466;2024-01-30T00:50:11;65.07;;;13.10;;
7881;SDS011;3986;41.884;23.466;2024-01-30T00:52:38;61.70;;;13.47;;
7881;SDS011;3986;41.884;23.466;2024-01-30T00:55:06;56.07;;;12.40;;
7881;SDS011;3986;41.884;23.466;2024-01-30T00:57:33;52.27;;;11.33;;
7881;SDS011;3986;41.884;23.466;2024-01-30T01:00:01;49.50;;;11.93;;
7881;SDS011;3986;41.884;23.466;2024-01-30T01:02:31;58.07;;;12.53;;
7881;SDS011;3986;41.884;23.466;2024-01-30T01:04:58;55.00;;;12.40;;
7881;SDS011;3986;41.884;23.466;2024-01-30T01:07:25;59.83;;;12.97;;
7881;SDS011;3986;41.884;23.466;2024-01-30T01:09:52;51.53;;;12.03;;
7881;SDS011;3986;41.884;23.466;2024-01-30T01:12:18;73.00;;;13.27;;
7881;SDS011;3986;41.884;23.466;2024-01-30T01:14:47;51.03;;;11.70;;
7881;SDS011;3986;41.884;23.466;2024-01-30T01:17:15;50.07;;;13.07;;
7881;SDS011;3986;41.884;23.466;2024-01-30T01:19:43;53.57;;;14.73;;
7881;SDS011;3986;41.884;23.466;2024-01-30T01:22:10;52.83;;;11.50;;
7881;SDS011;3986;41.884;23.466;2024-01-30T01:24:37;47.40;;;10.50;;
7881;SDS011;3986;41.884;23.466;2024-01-30T01:27:04;48.30;;;10.53;;
7881;SDS011;3986;41.884;23.466;2024-01-30T01:29:32;47.17;;;9.93;;
7881;SDS011;3986;41.884;23.466;2024-01-30T01:31:59;41.60;;;10.00;;
7881;SDS011;3986;41.884;23.466;2024-01-30T01:34:27;43.47;;;10.47;;
7881;SDS011;3986;41.884;23.466;2024-01-30T01:36:54;42.10;;;9.80;;
7881;SDS011;3986;41.884;23.466;2024-01-30T01:39:22;57.10;;;10.50;;
7881;SDS011;3986;41.884;23.466;2024-01-30T01:41:49;45.53;;;9.67;;
7881;SDS011;3986;41.884;23.466;2024-01-30T01:44:17;47.57;;;11.33;;
7881;SDS011;3986;41.884;23.466;2024-01-30T01:46:44;61.40;;;14.33;;
7881;SDS011;3986;41.884;23.466;2024-01-30T01:49:11;59.20;;;14.53;;
7881;SDS011;3986;41.884;23.466;2024-01-30T01:51:39;71.90;;;15.37;;
7881;SDS011;3986;41.884;23.466;2024-01-30T01:54:09;55.83;;;13.70;;
7881;SDS011;3986;41.884;23.466;2024-01-30T01:56:37;59.53;;;14.07;;
7881;SDS011;3986;41.884;23.466;2024-01-30T01:59:05;48.77;;;13.73;;
7881;SDS011;3986;41.884;23.466;2024-01-30T02:01:33;42.33;;;11.87;;
7881;SDS011;3986;41.884;23.466;2024-01-30T02:04:02;35.57;;;10.27;;
7881;SDS011;3986;41.884;23.466;2024-01-30T02:06:29;43.77;;;12.03;;
7881;SDS011;3986;41.884;23.466;2024-01-30T02:08:57;49.57;;;11.73;;
7881;SDS011;3986;41.884;23.466;2024-01-30T02:11:23;59.47;;;11.07;;
7881;SDS011;3986;41.884;23.466;2024-01-30T02:13:50;51.07;;;10.97;;
7881;SDS011;3986;41.884;23.466;2024-01-30T02:16:17;69.70;;;16.37;;
7881;SDS011;3986;41.884;23.466;2024-01-30T02:18:44;57.07;;;13.27;;
7881;SDS011;3986;41.884;23.466;2024-01-30T02:21:14;56.57;;;12.57;;
7881;SDS011;3986;41.884;23.466;2024-01-30T02:23:42;57.47;;;11.37;;
7881;SDS011;3986;41.884;23.466;2024-01-30T02:26:09;42.73;;;9.83;;
7881;SDS011;3986;41.884;23.466;2024-01-30T02:28:36;49.97;;;10.83;;
7881;SDS011;3986;41.884;23.466;2024-01-30T02:31:03;56.80;;;10.40;;
7881;SDS011;3986;41.884;23.466;2024-01-30T02:33:30;56.20;;;10.30;;
7881;SDS011;3986;41.884;23.466;2024-01-30T02:35:57;41.57;;;8.50;;
7881;SDS011;3986;41.884;23.466;2024-01-30T02:38:25;56.30;;;10.00;;
7881;SDS011;3986;41.884;23.466;2024-01-30T02:40:53;39.83;;;9.03;;
7881;SDS011;3986;41.884;23.466;2024-01-30T02:43:20;45.60;;;9.87;;
7881;SDS011;3986;41.884;23.466;2024-01-30T02:45:47;63.47;;;11.57;;
7881;SDS011;3986;41.884;23.466;2024-01-30T02:48:14;55.77;;;12.13;;
7881;SDS011;3986;41.884;23.466;2024-01-30T02:50:41;45.03;;;12.10;;
7881;SDS011;3986;41.884;23.466;2024-01-30T02:53:07;48.00;;;11.87;;
7881;SDS011;3986;41.884;23.466;2024-01-30T02:55:36;50.97;;;12.43;;
7881;SDS011;3986;41.884;23.466;2024-01-30T02:58:02;36.67;;;11.43;;
7881;SDS011;3986;41.884;23.466;2024-01-30T03:00:29;43.17;;;13.00;;
7881;SDS011;3986;41.884;23.466;2024-01-30T03:02:56;67.50;;;20.30;;
7881;SDS011;3986;41.884;23.466;2024-01-30T03:05:23;72.03;;;18.20;;
7881;SDS011;3986;41.884;23.466;2024-01-30T03:07:50;63.60;;;16.87;;
7881;SDS011;3986;41.884;23.466;2024-01-30T03:10:16;67.00;;;15.40;;
7881;SDS011;3986;41.884;23.466;2024-01-30T03:12:45;53.10;;;15.13;;
7881;SDS011;3986;41.884;23.466;2024-01-30T03:15:12;45.47;;;11.97;;
7881;SDS011;3986;41.884;23.466;2024-01-30T03:17:38;51.27;;;11.93;;
7881;SDS011;3986;41.884;23.466;2024-01-30T03:20:05;49.63;;;10.83;;
7881;SDS011;3986;41.884;23.466;2024-01-30T03:22:34;42.67;;;10.40;;
7881;SDS011;3986;41.884;23.466;2024-01-30T03:25:00;41.83;;;11.47;;
7881;SDS011;3986;41.884;23.466;2024-01-30T03:27:27;60.00;;;12.73;;
7881;SDS011;3986;41.884;23.466;2024-01-30T03:29:56;50.70;;;11.73;;
7881;SDS011;3986;41.884;23.466;2024-01-30T03:32:23;57.93;;;11.33;;
7881;SDS011;3986;41.884;23.466;2024-01-30T03:34:50;50.70;;;10.17;;
7881;SDS011;3986;41.884;23.466;2024-01-30T03:37:16;50.90;;;10.97;;
7881;SDS011;3986;41.884;23.466;2024-01-30T03:39:43;57.27;;;13.23;;
7881;SDS011;3986;41.884;23.466;2024-01-30T03:42:10;50.60;;;12.60;;
7881;SDS011;3986;41.884;23.466;2024-01-30T03:44:37;48.30;;;13.13;;
7881;SDS011;3986;41.884;23.466;2024-01-30T03:47:05;47.77;;;13.37;;
7881;SDS011;3986;41.884;23.466;2024-01-30T03:49:31;77.23;;;20.20;;
7881;SDS011;3986;41.884;23.466;2024-01-30T03:51:58;62.13;;;20.53;;
7881;SDS011;3986;41.884;23.466;2024-01-30T03:54:25;52.10;;;15.00;;
7881;SDS011;3986;41.884;23.466;2024-01-30T03:56:52;60.23;;;15.10;;
7881;SDS011;3986;41.884;23.466;2024-01-30T03:59:19;63.50;;;16.00;;
7881;SDS011;3986;41.884;23.466;2024-01-30T04:01:49;66.57;;;16.20;;
7881;SDS011;3986;41.884;23.466;2024-01-30T04:04:17;47.40;;;16.77;;
7881;SDS011;3986;41.884;23.466;2024-01-30T04:06:44;58.33;;;28.23;;
7881;SDS011;3986;41.884;23.466;2024-01-30T04:09:12;55.47;;;20.07;;
7881;SDS011;3986;41.884;23.466;2024-01-30T04:11:40;58.27;;;22.07;;
7881;SDS011;3986;41.884;23.466;2024-01-30T04:14:06;53.70;;;17.77;;
7881;SDS011;3986;41.884;23.466;2024-01-30T04:16:33;54.27;;;19.53;;
7881;SDS011;3986;41.884;23.466;2024-01-30T04:19:01;54.47;;;19.47;;
7881;SDS011;3986;41.884;23.466;2024-01-30T04:21:29;55.73;;;20.07;;
7881;SDS011;3986;41.884;23.466;2024-01-30T04:23:56;72.33;;;19.93;;
7881;SDS011;3986;41.884;23.466;2024-01-30T04:26:22;60.20;;;16.23;;
7881;SDS011;3986;41.884;23.466;2024-01-30T04:28:49;71.30;;;18.73;;
7881;SDS011;3986;41.884;23.466;2024-01-30T04:31:16;66.20;;;23.93;;
7881;SDS011;3986;41.884;23.466;2024-01-30T04:33:43;69.53;;;25.70;;
7881;SDS011;3986;41.884;23.466;2024-01-30T04:36:10;83.70;;;20.03;;
7881;SDS011;3986;41.884;23.466;2024-01-30T04:38:38;47.63;;;15.10;;
7881;SDS011;3986;41.884;23.466;2024-01-30T04:41:05;51.10;;;14.30;;
7881;SDS011;3986;41.884;23.466;2024-01-30T04:43:32;63.97;;;21.83;;
7881;SDS011;3986;41.884;23.466;2024-01-30T04:45:58;69.60;;;20.80;;
7881;SDS011;3986;41.884;23.466;2024-01-30T04:48:25;76.17;;;26.00;;
7881;SDS011;3986;41.884;23.466;2024-01-30T04:50:52;72.43;;;27.63;;
7881;SDS011;3986;41.884;23.466;2024-01-30T04:53:19;63.13;;;24.90;;
7881;SDS011;3986;41.884;23.466;2024-01-30T04:55:47;56.37;;;24.87;;
7881;SDS011;3986;41.884;23.466;2024-01-30T04:58:14;75.30;;;24.73;;
7881;SDS011;3986;41.884;23.466;2024-01-30T05:00:41;56.93;;;24.33;;
7881;SDS011;3986;41.884;23.466;2024-01-30T05:03:08;69.03;;;26.93;;
7881;SDS011;3986;41.884;23.466;2024-01-30T05:05:34;103.80;;;33.87;;
7881;SDS011;3986;41.884;23.466;2024-01-30T05:08:01;80.50;;;31.70;;
7881;SDS011;3986;41.884;23.466;2024-01-30T05:10:28;131.13;;;37.13;;
7881;SDS011;3986;41.884;23.466;2024-01-30T05:12:56;88.57;;;35.83;;
7881;SDS011;3986;41.884;23.466;2024-01-30T05:15:23;86.77;;;42.47;;
7881;SDS011;3986;41.884;23.466;2024-01-30T05:17:50;90.77;;;37.87;;
7881;SDS011;3986;41.884;23.466;2024-01-30T05:20:16;118.70;;;40.27;;
7881;SDS011;3986;41.884;23.466;2024-01-30T05:22:43;86.43;;;35.67;;
7881;SDS011;3986;41.884;23.466;2024-01-30T05:25:11;82.07;;;33.10;;
7881;SDS011;3986;41.884;23.466;2024-01-30T05:27:38;92.47;;;38.27;;
7881;SDS011;3986;41.884;23.466;2024-01-30T05:30:07;99.67;;;40.43;;
7881;SDS011;3986;41.884;23.466;2024-01-30T05:32:34;104.03;;;39.93;;
7881;SDS011;3986;41.884;23.466;2024-01-30T05:35:01;83.67;;;33.43;;
7881;SDS011;3986;41.884;23.466;2024-01-30T05:37:28;77.83;;;32.23;;
7881;SDS011;3986;41.884;23.466;2024-01-30T05:39:55;100.23;;;41.33;;
7881;SDS011;3986;41.884;23.466;2024-01-30T05:42:22;85.13;;;39.17;;
7881;SDS011;3986;41.884;23.466;2024-01-30T05:44:49;81.03;;;37.77;;
7881;SDS011;3986;41.884;23.466;2024-01-30T05:47:17;89.70;;;39.33;;
7881;SDS011;3986;41.884;23.466;2024-01-30T05:49:44;143.73;;;45.23;;
7881;SDS011;3986;41.884;23.466;2024-01-30T05:52:11;98.30;;;45.63;;
7881;SDS011;3986;41.884;23.466;2024-01-30T05:54:38;93.30;;;42.43;;
7881;SDS011;3986;41.884;23.466;2024-01-30T05:57:05;122.30;;;51.83;;
7881;SDS011;3986;41.884;23.466;2024-01-30T05:59:32;117.53;;;51.73;;
7881;SDS011;3986;41.884;23.466;2024-01-30T06:01:58;109.77;;;44.87;;
7881;SDS011;3986;41.884;23.466;2024-01-30T06:04:26;111.83;;;48.70;;
7881;SDS011;3986;41.884;23.466;2024-01-30T06:06:53;92.40;;;49.13;;
7881;SDS011;3986;41.884;23.466;2024-01-30T06:09:20;106.87;;;48.23;;
7881;SDS011;3986;41.884;23.466;2024-01-30T06:11:47;106.63;;;50.10;;
7881;SDS011;3986;41.884;23.466;2024-01-30T06:14:14;108.67;;;47.97;;
7881;SDS011;3986;41.884;23.466;2024-01-30T06:16:41;113.63;;;57.57;;
7881;SDS011;3986;41.884;23.466;2024-01-30T06:19:08;151.40;;;71.43;;
7881;SDS011;3986;41.884;23.466;2024-01-30T06:21:36;174.00;;;79.40;;
7881;SDS011;3986;41.884;23.466;2024-01-30T06:24:03;162.37;;;81.93;;
7881;SDS011;3986;41.884;23.466;2024-01-30T06:26:31;152.47;;;74.30;;
7881;SDS011;3986;41.884;23.466;2024-01-30T06:28:57;181.40;;;78.47;;
7881;SDS011;3986;41.884;23.466;2024-01-30T06:31:24;152.70;;;77.93;;
7881;SDS011;3986;41.884;23.466;2024-01-30T06:33:51;161.37;;;79.53;;
7881;SDS011;3986;41.884;23.466;2024-01-30T06:36:18;159.30;;;73.10;;
7881;SDS011;3986;41.884;23.466;2024-01-30T06:38:46;129.10;;;60.37;;
7881;SDS011;3986;41.884;23.466;2024-01-30T06:41:13;154.43;;;72.17;;
7881;SDS011;3986;41.884;23.466;2024-01-30T06:43:40;161.87;;;69.77;;
7881;SDS011;3986;41.884;23.466;2024-01-30T06:46:10;134.27;;;59.87;;
7881;SDS011;3986;41.884;23.466;2024-01-30T06:48:38;105.07;;;54.90;;
7881;SDS011;3986;41.884;23.466;2024-01-30T06:51:05;91.53;;;49.37;;
7881;SDS011;3986;41.884;23.466;2024-01-30T06:53:32;109.03;;;54.50;;
7881;SDS011;3986;41.884;23.466;2024-01-30T06:56:01;116.90;;;53.83;;
7881;SDS011;3986;41.884;23.466;2024-01-30T06:58:27;91.13;;;43.77;;
7881;SDS011;3986;41.884;23.466;2024-01-30T07:00:55;79.40;;;34.03;;
7881;SDS011;3986;41.884;23.466;2024-01-30T07:03:22;91.53;;;36.43;;
7881;SDS011;3986;41.884;23.466;2024-01-30T07:05:49;95.17;;;38.40;;
7881;SDS011;3986;41.884;23.466;2024-01-30T07:08:16;109.63;;;41.67;;
7881;SDS011;3986;41.884;23.466;2024-01-30T07:10:43;121.10;;;46.03;;
7881;SDS011;3986;41.884;23.466;2024-01-30T07:13:12;111.10;;;49.40;;
7881;SDS011;3986;41.884;23.466;2024-01-30T07:15:41;110.73;;;52.93;;
7881;SDS011;3986;41.884;23.466;2024-01-30T07:18:08;83.73;;;42.97;;
7881;SDS011;3986;41.884;23.466;2024-01-30T07:20:36;118.23;;;50.33;;
7881;SDS011;3986;41.884;23.466;2024-01-30T07:23:03;148.20;;;47.00;;
7881;SDS011;3986;41.884;23.466;2024-01-30T07:25:30;101.53;;;48.67;;
7881;SDS011;3986;41.884;23.466;2024-01-30T07:27:57;113.50;;;60.83;;
7881;SDS011;3986;41.884;23.466;2024-01-30T07:30:25;92.43;;;54.07;;
7881;SDS011;3986;41.884;23.466;2024-01-30T07:32:52;105.23;;;52.83;;
7881;SDS011;3986;41.884;23.466;2024-01-30T07:35:19;104.60;;;55.63;;
7881;SDS011;3986;41.884;23.466;2024-01-30T07:37:46;143.07;;;69.83;;
7881;SDS011;3986;41.884;23.466;2024-01-30T07:40:13;104.43;;;56.90;;
7881;SDS011;3986;41.884;23.466;2024-01-30T07:42:40;109.37;;;53.57;;
7881;SDS011;3986;41.884;23.466;2024-01-30T07:45:07;156.83;;;43.73;;
7881;SDS011;3986;41.884;23.466;2024-01-30T07:47:36;120.70;;;38.23;;
7881;SDS011;3986;41.884;23.466;2024-01-30T07:50:03;99.90;;;39.00;;
7881;SDS011;3986;41.884;23.466;2024-01-30T07:52:31;94.83;;;35.93;;
7881;SDS011;3986;41.884;23.466;2024-01-30T07:54:57;76.87;;;30.80;;
7881;SDS011;3986;41.884;23.466;2024-01-30T07:57:24;97.20;;;29.70;;
7881;SDS011;3986;41.884;23.466;2024-01-30T07:59:51;69.60;;;28.93;;
7881;SDS011;3986;41.884;23.466;2024-01-30T08:02:18;55.43;;;19.53;;
7881;SDS011;3986;41.884;23.466;2024-01-30T08:04:47;59.67;;;14.50;;
7881;SDS011;3986;41.884;23.466;2024-01-30T08:07:14;45.13;;;17.60;;
7881;SDS011;3986;41.884;23.466;2024-01-30T08:09:42;89.63;;;21.93;;
7881;SDS011;3986;41.884;23.466;2024-01-30T08:12:09;73.97;;;21.87;;
7881;SDS011;3986;41.884;23.466;2024-01-30T08:14:36;52.47;;;20.10;;
7881;SDS011;3986;41.884;23.466;2024-01-30T08:17:04;81.30;;;24.77;;
7881;SDS011;3986;41.884;23.466;2024-01-30T08:19:32;92.67;;;29.63;;
7881;SDS011;3986;41.884;23.466;2024-01-30T08:22:01;59.17;;;17.80;;
7881;SDS011;3986;41.884;23.466;2024-01-30T08:24:28;49.90;;;14.77;;
7881;SDS011;3986;41.884;23.466;2024-01-30T08:26:55;61.63;;;17.70;;
7881;SDS011;3986;41.884;23.466;2024-01-30T08:29:23;44.70;;;15.90;;
7881;SDS011;3986;41.884;23.466;2024-01-30T08:31:50;64.50;;;12.93;;
7881;SDS011;3986;41.884;23.466;2024-01-30T08:34:17;82.57;;;20.60;;
7881;SDS011;3986;41.884;23.466;2024-01-30T08:36:44;52.63;;;12.73;;
7881;SDS011;3986;41.884;23.466;2024-01-30T08:39:12;44.30;;;10.70;;
7881;SDS011;3986;41.884;23.466;2024-01-30T08:41:40;46.40;;;14.70;;
7881;SDS011;3986;41.884;23.466;2024-01-30T08:44:07;54.77;;;11.83;;
7881;SDS011;3986;41.884;23.466;2024-01-30T08:46:36;74.40;;;10.67;;
7881;SDS011;3986;41.884;23.466;2024-01-30T08:49:03;40.77;;;9.97;;
7881;SDS011;3986;41.884;23.466;2024-01-30T08:51:31;48.90;;;11.37;;
7881;SDS011;3986;41.884;23.466;2024-01-30T08:53:58;51.10;;;12.63;;
7881;SDS011;3986;41.884;23.466;2024-01-30T08:56:26;47.03;;;16.33;;
7881;SDS011;3986;41.884;23.466;2024-01-30T08:58:53;40.47;;;7.20;;
7881;SDS011;3986;41.884;23.466;2024-01-30T09:01:20;42.87;;;9.30;;
7881;SDS011;3986;41.884;23.466;2024-01-30T09:03:47;76.87;;;16.00;;
7881;SDS011;3986;41.884;23.466;2024-01-30T09:06:14;70.20;;;13.23;;
7881;SDS011;3986;41.884;23.466;2024-01-30T09:08:41;84.23;;;11.97;;
7881;SDS011;3986;41.884;23.466;2024-01-30T09:11:08;62.73;;;9.07;;
7881;SDS011;3986;41.884;23.466;2024-01-30T09:13:37;90.80;;;13.03;;
7881;SDS011;3986;41.884;23.466;2024-01-30T09:16:04;64.23;;;14.57;;
7881;SDS011;3986;41.884;23.466;2024-01-30T09:18:31;44.47;;;9.00;;
7881;SDS011;3986;41.884;23.466;2024-01-30T09:20:58;44.55;;;9.63;;
7881;SDS011;3986;41.884;23.466;2024-01-30T09:23:26;63.13;;;12.88;;
7881;SDS011;3986;41.884;23.466;2024-01-30T09:25:53;38.63;;;11.23;;
7881;SDS011;3986;41.884;23.466;2024-01-30T09:28:20;77.93;;;11.95;;
7881;SDS011;3986;41.884;23.466;2024-01-30T09:30:48;71.07;;;11.00;;
7881;SDS011;3986;41.884;23.466;2024-01-30T09:33:15;72.10;;;9.02;;
7881;SDS011;3986;41.884;23.466;2024-01-30T09:35:43;57.55;;;7.55;;
7881;SDS011;3986;41.884;23.466;2024-01-30T09:38:10;55.42;;;8.85;;
7881;SDS011;3986;41.884;23.466;2024-01-30T09:40:37;56.20;;;9.82;;
7881;SDS011;3986;41.884;23.466;2024-01-30T09:43:04;71.53;;;11.30;;
7881;SDS011;3986;41.884;23.466;2024-01-30T09:45:31;76.65;;;11.18;;
7881;SDS011;3986;41.884;23.466;2024-01-30T09:48:01;66.43;;;10.32;;
7881;SDS011;3986;41.884;23.466;2024-01-30T09:50:29;40.58;;;7.70;;
7881;SDS011;3986;41.884;23.466;2024-01-30T09:52:56;47.70;;;12.13;;
7881;SDS011;3986;41.884;23.466;2024-01-30T09:55:24;100.60;;;28.10;;
7881;SDS011;3986;41.884;23.466;2024-01-30T09:57:52;81.13;;;47.83;;
7881;SDS011;3986;41.884;23.466;2024-01-30T10:00:19;226.80;;;167.55;;
7881;SDS011;3986;41.884;23.466;2024-01-30T10:02:48;158.60;;;99.38;;
7881;SDS011;3986;41.884;23.466;2024-01-30T10:05:16;200.75;;;132.27;;
7881;SDS011;3986;41.884;23.466;2024-01-30T10:07:55;343.10;;;229.10;;
7881;SDS011;3986;41.884;23.466;2024-01-30T10:10:23;217.15;;;105.97;;
7881;SDS011;3986;41.884;23.466;2024-01-30T10:12:50;104.57;;;46.33;;
7881;SDS011;3986;41.884;23.466;2024-01-30T10:15:17;59.58;;;10.20;;
7881;SDS011;3986;41.884;23.466;2024-01-30T10:17:44;56.20;;;12.10;;
7881;SDS011;3986;41.884;23.466;2024-01-30T10:20:12;45.50;;;22.88;;
7881;SDS011;3986;41.884;23.466;2024-01-30T10:22:41;90.55;;;22.20;;
7881;SDS011;3986;41.884;23.466;2024-01-30T10:25:09;74.97;;;16.60;;
7881;SDS011;3986;41.884;23.466;2024-01-30T10:27:39;42.20;;;8.27;;
7881;SDS011;3986;41.884;23.466;2024-01-30T10:30:06;83.15;;;11.77;;
7881;SDS011;3986;41.884;23.466;2024-01-30T10:32:34;48.90;;;8.07;;
7881;SDS011;3986;41.884;23.466;2024-01-30T10:35:02;64.90;;;10.05;;
7881;SDS011;3986;41.884;23.466;2024-01-30T10:37:29;61.30;;;12.38;;
7881;SDS011;3986;41.884;23.466;2024-01-30T10:40:00;56.10;;;11.02;;
7881;SDS011;3986;41.884;23.466;2024-01-30T10:42:31;57.42;;;10.82;;
7881;SDS011;3986;41.884;23.466;2024-01-30T10:45:00;49.72;;;10.18;;
7881;SDS011;3986;41.884;23.466;2024-01-30T10:47:34;65.43;;;10.10;;
7881;SDS011;3986;41.884;23.466;2024-01-30T10:50:01;101.53;;;11.85;;
7881;SDS011;3986;41.884;23.466;2024-01-30T10:52:29;62.72;;;9.23;;
7881;SDS011;3986;41.884;23.466;2024-01-30T10:55:00;54.88;;;8.07;;
7881;SDS011;3986;41.884;23.466;2024-01-30T10:57:29;51.67;;;7.80;;
7881;SDS011;3986;41.884;23.466;2024-01-30T10:59:56;72.15;;;10.00;;
7881;SDS011;3986;41.884;23.466;2024-01-30T11:02:25;40.50;;;7.70;;
7881;SDS011;3986;41.884;23.466;2024-01-30T11:04:55;46.30;;;8.50;;
7881;SDS011;3986;41.884;23.466;2024-01-30T11:07:24;37.28;;;7.35;;
7881;SDS011;3986;41.884;23.466;2024-01-30T11:09:52;60.92;;;8.40;;
7881;SDS011;3986;41.884;23.466;2024-01-30T11:12:24;54.92;;;7.82;;
7881;SDS011;3986;41.884;23.466;2024-01-30T11:15:01;99.70;;;10.73;;
7881;SDS011;3986;41.884;23.466;2024-01-30T11:17:39;57.72;;;9.07;;
7881;SDS011;3986;41.884;23.466;2024-01-30T11:20:09;67.78;;;9.68;;
7881;SDS011;3986;41.884;23.466;2024-01-30T11:22:37;37.22;;;5.88;;
7881;SDS011;3986;41.884;23.466;2024-01-30T11:25:04;39.63;;;8.70;;
7881;SDS011;3986;41.884;23.466;2024-01-30T11:27:32;40.00;;;6.80;;
7881;SDS011;3986;41.884;23.466;2024-01-30T11:30:01;60.25;;;17.67;;
7881;SDS011;3986;41.884;23.466;2024-01-30T11:32:28;43.22;;;9.50;;
7881;SDS011;3986;41.884;23.466;2024-01-30T11:34:55;57.42;;;7.85;;
7881;SDS011;3986;41.884;23.466;2024-01-30T11:37:22;43.47;;;6.75;;
7881;SDS011;3986;41.884;23.466;2024-01-30T11:39:52;38.90;;;9.00;;
7881;SDS011;3986;41.884;23.466;2024-01-30T11:42:21;85.78;;;13.23;;
7881;SDS011;3986;41.884;23.466;2024-01-30T11:44:51;59.03;;;26.13;;
7881;SDS011;3986;41.884;23.466;2024-01-30T11:47:18;38.60;;;9.80;;
7881;SDS011;3986;41.884;23.466;2024-01-30T11:49:45;73.75;;;12.07;;
7881;SDS011;3986;41.884;23.466;2024-01-30T11:52:12;28.65;;;6.85;;
7881;SDS011;3986;41.884;23.466;2024-01-30T11:54:40;42.65;;;6.82;;
7881;SDS011;3986;41.884;23.466;2024-01-30T11:57:07;37.80;;;6.55;;
7881;SDS011;3986;41.884;23.466;2024-01-30T11:59:34;68.03;;;12.77;;
7881;SDS011;3986;41.884;23.466;2024-01-30T12:02:02;41.50;;;7.18;;
7881;SDS011;3986;41.884;23.466;2024-01-30T12:04:29;37.22;;;7.82;;
7881;SDS011;3986;41.884;23.466;2024-01-30T12:06:56;74.20;;;8.82;;
7881;SDS011;3986;41.884;23.466;2024-01-30T12:09:23;32.83;;;6.57;;
7881;SDS011;3986;41.884;23.466;2024-01-30T12:11:50;58.97;;;10.13;;
7881;SDS011;3986;41.884;23.466;2024-01-30T12:14:17;57.03;;;8.85;;
7881;SDS011;3986;41.884;23.466;2024-01-30T12:16:47;57.28;;;7.57;;
7881;SDS011;3986;41.884;23.466;2024-01-30T12:19:22;64.13;;;9.63;;
7881;SDS011;3986;41.884;23.466;2024-01-30T12:21:53;79.50;;;13.02;;
7881;SDS011;3986;41.884;23.466;2024-01-30T12:24:21;62.90;;;9.05;;
7881;SDS011;3986;41.884;23.466;2024-01-30T12:26:48;68.53;;;10.73;;
7881;SDS011;3986;41.884;23.466;2024-01-30T12:29:15;44.72;;;12.00;;
7881;SDS011;3986;41.884;23.466;2024-01-30T12:31:42;49.72;;;8.65;;
7881;SDS011;3986;41.884;23.466;2024-01-30T12:34:09;58.20;;;12.60;;
7881;SDS011;3986;41.884;23.466;2024-01-30T12:36:37;45.38;;;11.00;;
7881;SDS011;3986;41.884;23.466;2024-01-30T12:39:04;36.65;;;8.75;;
7881;SDS011;3986;41.884;23.466;2024-01-30T12:41:31;43.17;;;8.40;;
7881;SDS011;3986;41.884;23.466;2024-01-30T12:43:57;42.67;;;6.47;;
7881;SDS011;3986;41.884;23.466;2024-01-30T12:46:25;33.30;;;6.82;;
7881;SDS011;3986;41.884;23.466;2024-01-30T12:48:54;50.83;;;10.02;;
7881;SDS011;3986;41.884;23.466;2024-01-30T12:51:20;88.70;;;9.95;;
7881;SDS011;3986;41.884;23.466;2024-01-30T12:53:49;64.28;;;14.75;;
7881;SDS011;3986;41.884;23.466;2024-01-30T12:56:16;75.68;;;14.90;;
7881;SDS011;3986;41.884;23.466;2024-01-30T12:58:42;48.63;;;12.65;;
7881;SDS011;3986;41.884;23.466;2024-01-30T13:01:09;75.38;;;14.68;;
7881;SDS011;3986;41.884;23.466;2024-01-30T13:03:36;53.30;;;9.52;;
7881;SDS011;3986;41.884;23.466;2024-01-30T13:06:03;35.90;;;8.75;;
7881;SDS011;3986;41.884;23.466;2024-01-30T13:08:30;34.10;;;7.80;;
7881;SDS011;3986;41.884;23.466;2024-01-30T13:10:58;25.75;;;7.00;;
7881;SDS011;3986;41.884;23.466;2024-01-30T13:13:25;66.32;;;13.30;;
7881;SDS011;3986;41.884;23.466;2024-01-30T13:15:52;56.83;;;9.07;;
7881;SDS011;3986;41.884;23.466;2024-01-30T13:18:18;75.90;;;10.02;;
7881;SDS011;3986;41.884;23.466;2024-01-30T13:20:45;50.70;;;8.55;;
7881;SDS011;3986;41.884;23.466;2024-01-30T13:23:12;61.67;;;10.73;;
7881;SDS011;3986;41.884;23.466;2024-01-30T13:25:39;54.30;;;9.98;;
7881;SDS011;3986;41.884;23.466;2024-01-30T13:28:07;43.17;;;8.93;;
7881;SDS011;3986;41.884;23.466;2024-01-30T13:30:34;56.67;;;10.93;;
7881;SDS011;3986;41.884;23.466;2024-01-30T13:33:01;51.22;;;10.48;;
7881;SDS011;3986;41.884;23.466;2024-01-30T13:35:28;56.08;;;12.70;;
7881;SDS011;3986;41.884;23.466;2024-01-30T13:37:55;69.05;;;15.07;;
7881;SDS011;3986;41.884;23.466;2024-01-30T13:40:22;90.90;;;13.00;;
7881;SDS011;3986;41.884;23.466;2024-01-30T13:42:49;70.80;;;10.90;;
7881;SDS011;3986;41.884;23.466;2024-01-30T13:45:17;53.00;;;12.05;;
7881;SDS011;3986;41.884;23.466;2024-01-30T13:47:43;71.40;;;22.35;;
7881;SDS011;3986;41.884;23.466;2024-01-30T13:50:10;91.57;;;20.42;;
7881;SDS011;3986;41.884;23.466;2024-01-30T13:52:40;61.15;;;14.90;;
7881;SDS011;3986;41.884;23.466;2024-01-30T13:55:07;60.58;;;12.65;;
7881;SDS011;3986;41.884;23.466;2024-01-30T13:57:34;48.72;;;13.32;;
7881;SDS011;3986;41.884;23.466;2024-01-30T14:00:01;51.28;;;11.18;;
7881;SDS011;3986;41.884;23.466;2024-01-30T14:02:29;29.33;;;8.27;;
7881;SDS011;3986;41.884;23.466;2024-01-30T14:04:56;45.80;;;11.55;;
7881;SDS011;3986;41.884;23.466;2024-01-30T14:07:23;63.72;;;16.00;;
7881;SDS011;3986;41.884;23.466;2024-01-30T14:09:50;64.30;;;11.50;;
7881;SDS011;3986;41.884;23.466;2024-01-30T14:12:17;37.35;;;7.93;;
7881;SDS011;3986;41.884;23.466;2024-01-30T14:14:43;63.00;;;14.05;;
7881;SDS011;3986;41.884;23.466;2024-01-30T14:17:10;54.85;;;16.38;;
7881;SDS011;3986;41.884;23.466;2024-01-30T14:19:38;71.03;;;17.00;;
7881;SDS011;3986;41.884;23.466;2024-01-30T14:22:05;60.80;;;13.25;;
7881;SDS011;3986;41.884;23.466;2024-01-30T14:24:32;58.72;;;11.73;;
7881;SDS011;3986;41.884;23.466;2024-01-30T14:26:59;42.35;;;11.02;;
7881;SDS011;3986;41.884;23.466;2024-01-30T14:29:25;60.53;;;11.35;;
7881;SDS011;3986;41.884;23.466;2024-01-30T14:31:52;56.00;;;10.82;;
7881;SDS011;3986;41.884;23.466;2024-01-30T14:34:20;65.67;;;12.80;;
7881;SDS011;3986;41.884;23.466;2024-01-30T14:36:48;61.67;;;13.07;;